createdAt,value
2022-12-03T00:01:23.433Z,41.70
2022-12-03T00:03:51.403Z,50.00
2022-12-03T00:06:19.373Z,49.00
2022-12-03T00:08:47.222Z,48.10
2022-12-03T00:11:14.998Z,47.90
2022-12-03T00:13:42.726Z,48.80
2022-12-03T00:16:10.531Z,48.70
2022-12-03T00:18:38.498Z,48.70
2022-12-03T00:21:06.508Z,45.00
2022-12-03T00:23:40.186Z,49.00
2022-12-03T00:26:09.985Z,52.80
2022-12-03T00:28:37.741Z,55.90
2022-12-03T00:31:05.743Z,50.50
2022-12-03T00:33:33.496Z,40.00
2022-12-03T00:36:01.196Z,50.70
2022-12-03T00:38:29.100Z,48.50
2022-12-03T00:40:56.824Z,46.80
2022-12-03T00:43:25.172Z,47.30
2022-12-03T00:45:53.003Z,43.20
2022-12-03T00:48:20.870Z,54.80
2022-12-03T00:50:48.622Z,44.50
2022-12-03T00:53:16.478Z,44.40
2022-12-03T00:55:44.178Z,47.10
2022-12-03T00:58:11.943Z,48.60
2022-12-03T01:00:39.612Z,47.50
2022-12-03T01:03:07.458Z,51.80
2022-12-03T01:05:35.236Z,52.30
2022-12-03T01:08:03.107Z,50.80
2022-12-03T01:10:31.047Z,48.90
2022-12-03T01:12:58.851Z,54.00
2022-12-03T01:15:26.642Z,47.70
2022-12-03T01:17:54.485Z,43.70
2022-12-03T01:20:22.617Z,42.60
2022-12-03T01:22:50.682Z,46.10
2022-12-03T01:25:18.450Z,47.70
2022-12-03T01:27:46.333Z,50.20
2022-12-03T01:30:14.807Z,44.70
2022-12-03T01:32:42.653Z,45.70
2022-12-03T01:35:10.582Z,49.20
2022-12-03T01:37:38.303Z,47.50
2022-12-03T01:40:09.655Z,49.80
2022-12-03T01:42:40.856Z,52.30
2022-12-03T01:45:21.307Z,50.70
2022-12-03T01:47:49.311Z,54.00
2022-12-03T01:50:30.481Z,45.90
2022-12-03T01:53:01.828Z,57.40
2022-12-03T01:55:29.915Z,45.90
2022-12-03T01:58:01.051Z,49.30
2022-12-03T02:00:29.966Z,51.00
2022-12-03T02:03:04.254Z,48.70
2022-12-03T02:05:33.889Z,52.50
2022-12-03T02:08:02.221Z,51.10
2022-12-03T02:10:36.122Z,49.80
2022-12-03T02:13:09.052Z,53.70
2022-12-03T02:15:39.573Z,56.30
2022-12-03T02:18:08.931Z,53.50
2022-12-03T02:20:51.740Z,51.40
2022-12-03T02:23:40.827Z,46.50
2022-12-03T02:26:08.898Z,41.40
2022-12-03T02:28:38.210Z,48.30
2022-12-03T02:31:06.553Z,52.80
2022-12-03T02:33:36.391Z,46.70
2022-12-03T02:36:04.884Z,52.80
2022-12-03T02:38:35.180Z,45.30
2022-12-03T02:41:07.944Z,47.90
2022-12-03T02:43:35.978Z,46.90
2022-12-03T02:46:05.045Z,45.50
2022-12-03T02:48:36.209Z,44.30
2022-12-03T02:51:08.777Z,48.00
2022-12-03T02:53:44.666Z,47.70
2022-12-03T02:56:16.685Z,55.10
2022-12-03T02:58:47.300Z,49.50
2022-12-03T03:01:15.915Z,44.60
2022-12-03T03:03:45.868Z,44.10
2022-12-03T03:06:16.115Z,47.30
2022-12-03T03:08:44.214Z,51.40
2022-12-03T03:11:12.229Z,47.00
2022-12-03T03:13:40.476Z,53.20
2022-12-03T03:16:09.271Z,51.60
2022-12-03T03:18:37.445Z,46.20
2022-12-03T03:21:06.380Z,46.50
2022-12-03T03:23:34.874Z,45.60
2022-12-03T03:26:08.428Z,43.40
2022-12-03T03:28:39.343Z,48.80
2022-12-03T03:31:09.093Z,50.70
2022-12-03T03:33:39.380Z,47.10
2022-12-03T03:36:07.783Z,44.30
2022-12-03T03:38:37.261Z,42.80
2022-12-03T03:41:06.440Z,45.10
2022-12-03T03:43:35.860Z,48.80
2022-12-03T03:46:05.556Z,43.80
2022-12-03T03:48:35.542Z,47.60
2022-12-03T03:51:09.092Z,45.40
2022-12-03T03:53:40.376Z,42.70
2022-12-03T03:56:09.758Z,41.80
2022-12-03T03:58:38.216Z,48.60
2022-12-03T04:01:06.791Z,41.50
2022-12-03T04:03:35.386Z,39.20
2022-12-03T04:06:03.227Z,40.50
2022-12-03T04:08:31.256Z,44.00
2022-12-03T04:11:17.349Z,47.40
2022-12-03T04:13:45.066Z,40.00
2022-12-03T04:16:12.872Z,45.60
2022-12-03T04:18:43.234Z,46.00
2022-12-03T04:21:33.289Z,37.00
2022-12-03T04:24:01.677Z,43.10
2022-12-03T04:26:48.041Z,35.30
2022-12-03T04:29:16.092Z,41.90
2022-12-03T04:32:02.184Z,42.00
2022-12-03T04:34:48.402Z,38.30
2022-12-03T04:37:16.379Z,41.30
2022-12-03T04:39:44.320Z,36.30
2022-12-03T04:42:12.021Z,35.80
2022-12-03T04:44:39.899Z,34.00
2022-12-03T04:47:16.198Z,37.10
2022-12-03T04:49:46.723Z,34.40
2022-12-03T04:52:16.082Z,36.90
2022-12-03T04:54:44.157Z,36.50
2022-12-03T04:57:12.658Z,34.00
2022-12-03T04:59:40.431Z,38.60
2022-12-03T05:02:09.208Z,38.20
2022-12-03T05:04:37.491Z,50.40
2022-12-03T05:07:05.241Z,40.50
2022-12-03T05:09:33.086Z,38.10
2022-12-03T05:12:00.934Z,42.10
2022-12-03T05:14:28.921Z,43.30
2022-12-03T05:16:56.755Z,38.60
2022-12-03T05:19:44.649Z,36.40
2022-12-03T05:22:12.368Z,41.80
2022-12-03T05:24:40.145Z,39.50
2022-12-03T05:27:07.932Z,39.90
2022-12-03T05:29:35.673Z,41.90
2022-12-03T05:32:04.537Z,35.60
2022-12-03T05:34:32.202Z,32.10
2022-12-03T05:36:59.984Z,34.10
2022-12-03T05:39:27.684Z,37.20
2022-12-03T05:42:14.066Z,34.10
2022-12-03T05:44:41.928Z,32.10
2022-12-03T05:47:09.639Z,36.20
2022-12-03T05:49:37.420Z,36.60
2022-12-03T05:52:05.268Z,36.60
2022-12-03T05:54:32.972Z,32.60
2022-12-03T05:57:00.833Z,32.50
2022-12-03T05:59:28.568Z,30.30
2022-12-03T06:01:56.408Z,38.80
2022-12-03T06:04:24.156Z,37.00
2022-12-03T06:06:51.881Z,36.50
2022-12-03T06:09:19.595Z,37.70
2022-12-03T06:11:47.306Z,36.20
2022-12-03T06:14:15.070Z,33.00
2022-12-03T06:16:42.906Z,36.60
2022-12-03T06:19:10.740Z,36.00
2022-12-03T06:21:38.560Z,37.70
2022-12-03T06:24:06.411Z,36.70
2022-12-03T06:26:34.192Z,34.70
2022-12-03T06:29:01.957Z,33.30
2022-12-03T06:31:29.912Z,37.20
2022-12-03T06:33:57.697Z,32.60
2022-12-03T06:36:27.672Z,37.70
2022-12-03T06:38:55.357Z,32.10
2022-12-03T06:41:23.229Z,32.10
2022-12-03T06:43:50.972Z,34.10
2022-12-03T06:46:18.805Z,29.40
2022-12-03T06:48:46.721Z,34.50
2022-12-03T06:51:14.461Z,35.00
2022-12-03T06:53:42.249Z,33.20
2022-12-03T06:56:10.133Z,36.80
2022-12-03T06:58:38.181Z,32.50
2022-12-03T07:01:06.116Z,48.30
2022-12-03T07:03:33.857Z,31.10
2022-12-03T07:06:01.791Z,35.90
2022-12-03T07:08:29.564Z,33.20
2022-12-03T07:10:57.306Z,34.20
2022-12-03T07:13:24.988Z,34.80
2022-12-03T07:15:52.748Z,36.40
2022-12-03T07:18:20.493Z,38.90
2022-12-03T07:20:49.477Z,31.60
2022-12-03T07:23:17.227Z,37.50
2022-12-03T07:25:45.013Z,32.20
2022-12-03T07:28:12.780Z,35.90
2022-12-03T07:30:40.634Z,33.60
2022-12-03T07:33:08.305Z,36.40
2022-12-03T07:35:36.020Z,30.00
2022-12-03T07:38:03.711Z,34.00
2022-12-03T07:40:31.410Z,37.80
2022-12-03T07:42:59.151Z,34.40
2022-12-03T07:45:26.868Z,37.30
2022-12-03T07:47:54.579Z,34.50
2022-12-03T07:50:22.396Z,34.90
2022-12-03T07:52:50.120Z,36.70
2022-12-03T07:55:17.968Z,35.20
2022-12-03T07:57:45.704Z,35.10
2022-12-03T08:00:14.755Z,32.60
2022-12-03T08:02:42.572Z,34.20
2022-12-03T08:05:11.682Z,40.50
2022-12-03T08:07:39.811Z,40.80
2022-12-03T08:10:08.254Z,49.20
2022-12-03T08:12:41.632Z,44.40
2022-12-03T08:15:18.752Z,36.40
2022-12-03T08:17:53.261Z,39.10
2022-12-03T08:20:24.169Z,37.70
2022-12-03T08:22:53.728Z,38.80
2022-12-03T08:25:24.615Z,39.80
2022-12-03T08:27:56.983Z,33.20
2022-12-03T08:30:24.746Z,39.10
2022-12-03T08:32:52.715Z,35.70
2022-12-03T08:35:27.050Z,33.10
2022-12-03T08:38:01.549Z,35.30
2022-12-03T08:40:44.264Z,34.60
2022-12-03T08:43:25.337Z,32.80
2022-12-03T08:45:55.113Z,34.60
2022-12-03T08:48:40.704Z,38.90
2022-12-03T08:51:27.670Z,40.30
2022-12-03T08:54:02.067Z,32.00
2022-12-03T08:56:33.669Z,36.70
2022-12-03T08:59:14.047Z,32.60
2022-12-03T09:01:43.978Z,32.20
2022-12-03T09:04:22.911Z,35.50
2022-12-03T09:06:51.773Z,37.00
2022-12-03T09:09:20.570Z,30.50
2022-12-03T09:11:48.453Z,32.70
2022-12-03T09:14:18.847Z,38.10
2022-12-03T09:16:48.040Z,33.80
2022-12-03T09:19:16.357Z,36.50
2022-12-03T09:21:44.746Z,40.40
2022-12-03T09:24:12.598Z,31.90
2022-12-03T09:26:40.832Z,34.70
2022-12-03T09:29:12.155Z,32.10
2022-12-03T09:31:40.866Z,35.80
2022-12-03T09:34:08.741Z,37.20
2022-12-03T09:36:36.504Z,36.20
2022-12-03T09:39:04.455Z,35.10
2022-12-03T09:41:32.349Z,38.40
2022-12-03T09:44:05.611Z,30.10
2022-12-03T09:46:37.771Z,33.10
2022-12-03T09:51:43.999Z,33.90
2022-12-03T09:54:22.793Z,31.70
2022-12-03T09:56:51.273Z,30.10
2022-12-03T09:59:19.272Z,27.80
2022-12-03T10:01:47.340Z,35.60
2022-12-03T10:04:15.452Z,34.30
2022-12-03T10:06:46.013Z,36.10
2022-12-03T10:09:17.646Z,32.50
2022-12-03T10:11:45.403Z,35.40
2022-12-03T10:14:15.400Z,31.60
2022-12-03T10:16:43.826Z,36.40
2022-12-03T10:19:24.311Z,35.30
2022-12-03T10:21:52.097Z,36.60
2022-12-03T10:24:29.157Z,35.60
2022-12-03T10:27:21.724Z,36.00
2022-12-03T10:30:02.789Z,34.70
2022-12-03T10:32:43.539Z,34.10
2022-12-03T10:35:19.155Z,31.50
2022-12-03T10:37:56.679Z,36.50
2022-12-03T10:40:30.590Z,37.30
2022-12-03T10:43:21.601Z,39.30
2022-12-03T10:45:50.571Z,32.50
2022-12-03T10:48:21.482Z,36.20
2022-12-03T10:50:54.721Z,35.80
2022-12-03T10:53:31.618Z,38.90
2022-12-03T10:56:03.149Z,39.00
2022-12-03T10:58:35.621Z,36.70
2022-12-03T11:01:13.463Z,38.40
2022-12-03T11:06:15.244Z,36.70
2022-12-03T11:08:56.338Z,35.10
2022-12-03T11:11:28.917Z,38.60
2022-12-03T11:14:02.238Z,40.50
2022-12-03T11:16:53.021Z,34.90
2022-12-03T11:19:43.920Z,41.30
2022-12-03T11:22:18.586Z,41.20
2022-12-03T11:24:47.272Z,42.60
2022-12-03T11:27:19.930Z,39.90
2022-12-03T11:29:50.851Z,41.70
2022-12-03T11:32:37.811Z,45.10
2022-12-03T11:35:24.648Z,39.60
2022-12-03T11:37:54.173Z,43.40
2022-12-03T11:40:23.205Z,44.50
2022-12-03T11:42:53.695Z,50.70
2022-12-03T11:45:30.610Z,43.30
2022-12-03T11:48:00.273Z,44.60
2022-12-03T11:50:39.419Z,44.50
2022-12-03T11:53:26.825Z,44.20
2022-12-03T11:56:11.212Z,43.30
2022-12-03T11:58:44.179Z,39.40
2022-12-03T12:01:15.444Z,42.60
2022-12-03T12:03:49.597Z,48.60
2022-12-03T12:06:20.831Z,41.10
2022-12-03T12:08:52.267Z,42.90
2022-12-03T12:11:33.582Z,45.30
2022-12-03T12:14:12.268Z,44.70
2022-12-03T12:16:53.502Z,52.50
2022-12-03T12:19:43.679Z,46.70
2022-12-03T12:24:47.928Z,48.20
2022-12-03T12:27:29.596Z,43.90
2022-12-03T12:30:01.647Z,42.40
2022-12-03T12:32:33.392Z,45.00
2022-12-03T12:37:58.949Z,45.20
2022-12-03T12:40:30.619Z,45.60
2022-12-03T12:43:04.141Z,51.20
2022-12-03T12:45:42.076Z,40.70
2022-12-03T12:48:10.384Z,44.40
2022-12-03T12:50:40.692Z,47.60
2022-12-03T12:53:13.464Z,44.80
2022-12-03T12:55:41.961Z,51.30
2022-12-03T12:58:19.030Z,42.20
2022-12-03T13:00:54.307Z,47.30
2022-12-03T13:03:28.959Z,43.00
2022-12-03T13:05:57.938Z,46.10
2022-12-03T13:08:29.203Z,46.70
2022-12-03T13:10:59.882Z,47.50
2022-12-03T13:13:44.272Z,47.00
2022-12-03T13:16:23.182Z,48.40
2022-12-03T13:18:55.694Z,46.90
2022-12-03T13:21:44.356Z,50.40
2022-12-03T13:24:38.339Z,42.50
2022-12-03T13:27:18.514Z,45.90
2022-12-03T13:30:07.379Z,54.50
2022-12-03T13:32:41.702Z,42.50
2022-12-03T13:35:10.555Z,43.60
2022-12-03T13:37:39.534Z,48.70
2022-12-03T13:40:23.363Z,47.50
2022-12-03T13:42:53.906Z,49.00
2022-12-03T13:45:30.014Z,51.30
2022-12-03T13:48:14.499Z,43.60
2022-12-03T13:50:50.611Z,44.40
2022-12-03T13:53:28.449Z,46.00
2022-12-03T13:56:04.278Z,49.50
2022-12-03T13:58:33.009Z,46.10
2022-12-03T14:01:02.439Z,46.60
2022-12-03T14:03:31.419Z,49.90
2022-12-03T14:05:59.745Z,54.00
2022-12-03T14:08:29.620Z,49.70
2022-12-03T14:11:00.906Z,49.90
2022-12-03T14:13:29.544Z,53.60
2022-12-03T14:15:58.754Z,50.10
2022-12-03T14:18:27.667Z,49.70
2022-12-03T14:20:56.832Z,48.90
2022-12-03T14:23:25.513Z,52.80
2022-12-03T14:25:54.008Z,46.80
2022-12-03T14:28:21.933Z,55.60
2022-12-03T14:30:49.705Z,53.20
2022-12-03T14:33:17.649Z,50.00
2022-12-03T14:35:45.340Z,53.50
2022-12-03T14:38:13.011Z,52.00
2022-12-03T14:40:40.732Z,51.60
2022-12-03T14:43:08.922Z,52.20
2022-12-03T14:45:36.728Z,55.70
2022-12-03T14:48:04.597Z,43.40
2022-12-03T14:50:32.317Z,42.20
2022-12-03T14:53:00.139Z,53.50
2022-12-03T14:55:27.877Z,50.60
2022-12-03T14:57:55.623Z,56.50
2022-12-03T15:00:23.371Z,50.80
2022-12-03T15:02:51.101Z,48.80
2022-12-03T15:05:28.017Z,53.40
2022-12-03T15:07:56.608Z,49.20
2022-12-03T15:10:24.404Z,52.80
2022-12-03T15:12:52.221Z,62.90
2022-12-03T15:15:20.084Z,56.90
2022-12-03T15:17:47.848Z,58.90
2022-12-03T15:20:15.773Z,70.70
2022-12-03T15:22:43.579Z,69.80
2022-12-03T15:25:11.489Z,69.70
2022-12-03T15:27:39.215Z,71.10
2022-12-03T15:30:08.118Z,55.20
2022-12-03T15:32:35.873Z,55.40
2022-12-03T15:35:03.740Z,53.00
2022-12-03T15:37:31.476Z,57.40
2022-12-03T15:39:59.504Z,59.00
2022-12-03T15:42:29.766Z,53.60
2022-12-03T15:44:57.549Z,61.40
2022-12-03T15:47:25.664Z,60.00
2022-12-03T15:49:53.601Z,61.40
2022-12-03T15:52:21.652Z,55.20
2022-12-03T15:54:49.816Z,57.20
2022-12-03T15:57:17.796Z,63.30
2022-12-03T15:59:45.497Z,55.80
2022-12-03T16:02:13.459Z,57.80
2022-12-03T16:04:41.595Z,60.00
2022-12-03T16:07:09.584Z,57.20
2022-12-03T16:09:37.529Z,59.30
2022-12-03T16:12:05.647Z,57.30
2022-12-03T16:14:33.368Z,57.70
2022-12-03T16:17:01.180Z,61.50
2022-12-03T16:19:29.014Z,64.30
2022-12-03T16:21:56.774Z,54.60
2022-12-03T16:24:24.511Z,57.90
2022-12-03T16:26:52.283Z,59.60
2022-12-03T16:29:20.058Z,58.70
2022-12-03T16:31:47.814Z,64.90
2022-12-03T16:34:15.775Z,63.60
2022-12-03T16:36:45.698Z,63.80
2022-12-03T16:39:13.564Z,62.40
2022-12-03T16:41:41.257Z,67.90
2022-12-03T16:44:19.833Z,65.50
2022-12-03T16:46:47.648Z,63.40
2022-12-03T16:49:15.567Z,62.20
2022-12-03T16:51:43.283Z,72.90
2022-12-03T16:54:11.793Z,70.20
2022-12-03T16:56:39.572Z,76.00
2022-12-03T16:59:07.268Z,71.30
2022-12-03T17:01:35.173Z,69.00
2022-12-03T17:04:02.973Z,70.90
2022-12-03T17:06:30.827Z,60.90
2022-12-03T17:08:58.526Z,72.90
2022-12-03T17:11:26.312Z,74.90
2022-12-03T17:13:54.025Z,91.40
2022-12-03T17:16:21.933Z,73.40
2022-12-03T17:18:49.745Z,83.10
2022-12-03T17:21:17.715Z,76.70
2022-12-03T17:23:48.971Z,85.60
2022-12-03T17:26:18.235Z,81.60
2022-12-03T17:28:46.215Z,79.60
2022-12-03T17:31:14.066Z,78.00
2022-12-03T17:33:41.877Z,93.60
2022-12-03T17:36:10.395Z,83.80
2022-12-03T17:38:39.386Z,93.10
2022-12-03T17:41:07.807Z,69.80
2022-12-03T17:43:36.113Z,80.30
2022-12-03T17:46:05.349Z,97.30
2022-12-03T17:48:33.394Z,90.00
2022-12-03T17:51:01.739Z,94.90
2022-12-03T17:53:29.505Z,84.80
2022-12-03T17:55:57.259Z,81.30
2022-12-03T17:58:26.865Z,77.80
2022-12-03T18:00:58.710Z,92.20
2022-12-03T18:03:30.975Z,84.90
2022-12-03T18:05:58.739Z,74.00
2022-12-03T18:08:26.452Z,79.10
2022-12-03T18:10:54.699Z,87.40
2022-12-03T18:13:22.588Z,78.20
2022-12-03T18:15:50.440Z,91.80
2022-12-03T18:18:18.285Z,56.80
2022-12-03T18:20:46.252Z,66.40
2022-12-03T18:23:14.015Z,81.40
2022-12-03T18:25:42.308Z,80.80
2022-12-03T18:28:10.003Z,75.00
2022-12-03T18:30:37.767Z,76.70
2022-12-03T18:33:05.581Z,74.80
2022-12-03T18:35:33.547Z,81.60
2022-12-03T18:38:01.720Z,82.30
2022-12-03T18:40:29.488Z,81.30
2022-12-03T18:42:57.474Z,74.50
2022-12-03T18:45:25.201Z,77.20
2022-12-03T18:47:52.930Z,72.80
2022-12-03T18:50:20.947Z,84.20
2022-12-03T18:52:48.614Z,81.20
2022-12-03T18:55:21.851Z,80.70
2022-12-03T18:57:49.591Z,78.20
2022-12-03T19:00:18.342Z,80.80
2022-12-03T19:03:02.266Z,80.70
2022-12-03T19:05:33.331Z,76.40
2022-12-03T19:08:02.032Z,70.30
2022-12-03T19:10:29.849Z,82.00
2022-12-03T19:12:57.850Z,78.70
2022-12-03T19:15:25.616Z,82.70
2022-12-03T19:17:53.373Z,86.80
2022-12-03T19:20:21.223Z,76.40
2022-12-03T19:22:48.987Z,80.00
2022-12-03T19:25:16.774Z,71.90
2022-12-03T19:27:44.476Z,74.80
2022-12-03T19:30:13.045Z,75.60
2022-12-03T19:32:40.818Z,69.60
2022-12-03T19:35:11.190Z,64.60
2022-12-03T19:37:39.063Z,76.20
2022-12-03T19:40:10.269Z,71.50
2022-12-03T19:42:39.841Z,66.40
2022-12-03T19:45:09.405Z,66.50
2022-12-03T19:47:37.375Z,60.70
2022-12-03T19:50:06.051Z,67.00
2022-12-03T19:52:35.874Z,69.10
2022-12-03T19:55:04.254Z,70.90
2022-12-03T19:57:32.023Z,60.00
2022-12-03T20:00:01.248Z,80.30
2022-12-03T20:02:29.249Z,71.70
2022-12-03T20:04:57.259Z,80.20
2022-12-03T20:07:25.123Z,76.10
2022-12-03T20:09:53.323Z,81.70
2022-12-03T20:12:21.574Z,70.10
2022-12-03T20:14:50.255Z,67.80
2022-12-03T20:17:18.019Z,64.90
2022-12-03T20:19:45.727Z,65.00
2022-12-03T20:22:13.544Z,74.20
2022-12-03T20:24:41.409Z,96.60
2022-12-03T20:27:09.143Z,79.80
2022-12-03T20:29:36.887Z,80.60
2022-12-03T20:32:07.045Z,76.60
2022-12-03T20:34:36.062Z,71.20
2022-12-03T20:37:03.920Z,77.60
2022-12-03T20:39:31.784Z,83.20
2022-12-03T20:41:59.554Z,70.10
2022-12-03T20:44:27.584Z,65.20
2022-12-03T20:46:56.094Z,79.70
2022-12-03T20:49:24.197Z,66.30
2022-12-03T20:51:52.133Z,65.80
2022-12-03T20:54:19.848Z,51.50
2022-12-03T20:56:47.904Z,58.70
2022-12-03T20:59:17.135Z,65.80
2022-12-03T21:01:45.462Z,74.70
2022-12-03T21:04:13.795Z,53.10
2022-12-03T21:06:42.599Z,68.10
2022-12-03T21:09:12.210Z,62.50
2022-12-03T21:11:42.669Z,62.30
2022-12-03T21:14:11.391Z,63.50
2022-12-03T21:17:07.163Z,66.00
2022-12-03T21:19:31.116Z,58.70
2022-12-03T21:21:58.975Z,59.50
2022-12-03T21:24:26.799Z,61.70
2022-12-03T21:26:54.608Z,53.70
2022-12-03T21:29:23.264Z,57.40
2022-12-03T21:31:51.362Z,60.70
2022-12-03T21:34:19.333Z,57.80
2022-12-03T21:36:47.406Z,66.00
2022-12-03T21:39:15.182Z,55.40
2022-12-03T21:42:33.270Z,60.10
2022-12-03T21:44:31.383Z,58.40
2022-12-03T21:47:09.832Z,50.00
2022-12-03T21:49:41.607Z,58.70
2022-12-03T21:52:10.798Z,64.10
2022-12-03T21:54:38.607Z,63.60
2022-12-03T21:57:06.707Z,60.80
2022-12-03T21:59:34.508Z,65.00
